sensor_id;sensor_type;location;lat;lon;timestamp;P1;durP1;ratioP1;P2;durP2;ratioP2
33268;SDS011;19640;50.944;5.260;2023-08-31T00:00:42;1.33;;;0.90;;
33268;SDS011;19640;50.944;5.260;2023-08-31T00:03:09;2.35;;;1.40;;
33268;SDS011;19640;50.944;5.260;2023-08-31T00:05:41;2.95;;;1.40;;
33268;SDS011;19640;50.944;5.260;2023-08-31T00:08:08;2.83;;;0.93;;
33268;SDS011;19640;50.944;5.260;2023-08-31T00:10:34;2.85;;;1.05;;
33268;SDS011;19640;50.944;5.260;2023-08-31T00:13:00;2.13;;;1.02;;
33268;SDS011;19640;50.944;5.260;2023-08-31T00:15:27;2.25;;;1.08;;
33268;SDS011;19640;50.944;5.260;2023-08-31T00:17:54;1.80;;;1.20;;
33268;SDS011;19640;50.944;5.260;2023-08-31T00:20:19;2.08;;;1.30;;
33268;SDS011;19640;50.944;5.260;2023-08-31T00:22:46;1.42;;;1.15;;
33268;SDS011;19640;50.944;5.260;2023-08-31T00:25:12;3.53;;;1.10;;
33268;SDS011;19640;50.944;5.260;2023-08-31T00:27:38;2.08;;;1.02;;
33268;SDS011;19640;50.944;5.260;2023-08-31T00:30:05;1.20;;;1.10;;
33268;SDS011;19640;50.944;5.260;2023-08-31T00:32:36;2.15;;;0.95;;
33268;SDS011;19640;50.944;5.260;2023-08-31T00:35:04;1.80;;;0.98;;
33268;SDS011;19640;50.944;5.260;2023-08-31T00:37:30;1.13;;;0.98;;
33268;SDS011;19640;50.944;5.260;2023-08-31T00:39:56;1.40;;;1.08;;
33268;SDS011;19640;50.944;5.260;2023-08-31T00:42:22;1.90;;;1.30;;
33268;SDS011;19640;50.944;5.260;2023-08-31T00:44:47;2.28;;;1.25;;
33268;SDS011;19640;50.944;5.260;2023-08-31T00:47:14;1.98;;;1.17;;
33268;SDS011;19640;50.944;5.260;2023-08-31T00:49:40;1.73;;;1.08;;
33268;SDS011;19640;50.944;5.260;2023-08-31T00:52:06;3.03;;;1.15;;
33268;SDS011;19640;50.944;5.260;2023-08-31T00:54:32;1.30;;;0.95;;
33268;SDS011;19640;50.944;5.260;2023-08-31T00:56:59;3.00;;;1.13;;
33268;SDS011;19640;50.944;5.260;2023-08-31T00:59:25;2.20;;;1.40;;
33268;SDS011;19640;50.944;5.260;2023-08-31T01:13:30;2.47;;;1.33;;
33268;SDS011;19640;50.944;5.260;2023-08-31T01:15:59;1.40;;;1.30;;
33268;SDS011;19640;50.944;5.260;2023-08-31T01:18:27;1.30;;;1.20;;
33268;SDS011;19640;50.944;5.260;2023-08-31T01:21:08;1.48;;;1.10;;
33268;SDS011;19640;50.944;5.260;2023-08-31T01:23:57;3.10;;;1.33;;
33268;SDS011;19640;50.944;5.260;2023-08-31T01:26:24;5.35;;;1.25;;
33268;SDS011;19640;50.944;5.260;2023-08-31T01:28:51;1.98;;;1.25;;
33268;SDS011;19640;50.944;5.260;2023-08-31T01:31:17;1.85;;;1.38;;
33268;SDS011;19640;50.944;5.260;2023-08-31T01:33:43;1.42;;;1.20;;
33268;SDS011;19640;50.944;5.260;2023-08-31T01:36:14;1.35;;;1.13;;
33268;SDS011;19640;50.944;5.260;2023-08-31T01:39:02;2.25;;;1.30;;
33268;SDS011;19640;50.944;5.260;2023-08-31T01:41:34;3.03;;;1.30;;
33268;SDS011;19640;50.944;5.260;2023-08-31T01:44:03;2.38;;;1.33;;
33268;SDS011;19640;50.944;5.260;2023-08-31T01:46:31;1.60;;;1.40;;
33268;SDS011;19640;50.944;5.260;2023-08-31T01:48:56;2.97;;;1.77;;
33268;SDS011;19640;50.944;5.260;2023-08-31T01:51:22;2.28;;;1.30;;
33268;SDS011;19640;50.944;5.260;2023-08-31T01:53:48;1.98;;;1.27;;
33268;SDS011;19640;50.944;5.260;2023-08-31T01:56:14;1.17;;;1.00;;
33268;SDS011;19640;50.944;5.260;2023-08-31T01:58:39;6.35;;;1.38;;
33268;SDS011;19640;50.944;5.260;2023-08-31T02:01:05;2.75;;;1.35;;
33268;SDS011;19640;50.944;5.260;2023-08-31T02:03:31;2.50;;;1.33;;
33268;SDS011;19640;50.944;5.260;2023-08-31T02:05:56;1.83;;;1.42;;
33268;SDS011;19640;50.944;5.260;2023-08-31T02:08:22;3.65;;;1.70;;
33268;SDS011;19640;50.944;5.260;2023-08-31T02:10:48;1.75;;;1.48;;
33268;SDS011;19640;50.944;5.260;2023-08-31T02:13:14;1.60;;;1.30;;
33268;SDS011;19640;50.944;5.260;2023-08-31T02:15:41;1.70;;;1.60;;
33268;SDS011;19640;50.944;5.260;2023-08-31T02:18:07;2.08;;;1.60;;
33268;SDS011;19640;50.944;5.260;2023-08-31T02:20:33;3.10;;;1.70;;
33268;SDS011;19640;50.944;5.260;2023-08-31T02:22:59;3.05;;;1.90;;
33268;SDS011;19640;50.944;5.260;2023-08-31T02:25:25;3.17;;;1.60;;
33268;SDS011;19640;50.944;5.260;2023-08-31T02:27:53;5.00;;;2.00;;
33268;SDS011;19640;50.944;5.260;2023-08-31T02:30:19;3.10;;;1.85;;
33268;SDS011;19640;50.944;5.260;2023-08-31T02:32:45;3.05;;;1.83;;
33268;SDS011;19640;50.944;5.260;2023-08-31T02:35:10;5.32;;;2.05;;
33268;SDS011;19640;50.944;5.260;2023-08-31T02:37:37;5.13;;;2.05;;
33268;SDS011;19640;50.944;5.260;2023-08-31T02:40:03;2.40;;;2.00;;
33268;SDS011;19640;50.944;5.260;2023-08-31T02:42:31;2.88;;;2.10;;
33268;SDS011;19640;50.944;5.260;2023-08-31T02:44:56;3.05;;;2.63;;
33268;SDS011;19640;50.944;5.260;2023-08-31T02:47:22;3.42;;;2.95;;
33268;SDS011;19640;50.944;5.260;2023-08-31T02:49:48;2.92;;;2.50;;
33268;SDS011;19640;50.944;5.260;2023-08-31T02:52:14;3.33;;;2.50;;
33268;SDS011;19640;50.944;5.260;2023-08-31T02:54:39;3.22;;;2.92;;
33268;SDS011;19640;50.944;5.260;2023-08-31T02:57:05;3.10;;;2.67;;
33268;SDS011;19640;50.944;5.260;2023-08-31T02:59:31;2.53;;;2.33;;
33268;SDS011;19640;50.944;5.260;2023-08-31T03:02:00;4.20;;;2.83;;
33268;SDS011;19640;50.944;5.260;2023-08-31T03:04:29;3.13;;;2.80;;
33268;SDS011;19640;50.944;5.260;2023-08-31T03:06:56;3.33;;;2.80;;
33268;SDS011;19640;50.944;5.260;2023-08-31T03:09:21;7.40;;;2.53;;
33268;SDS011;19640;50.944;5.260;2023-08-31T03:11:47;3.60;;;2.88;;
33268;SDS011;19640;50.944;5.260;2023-08-31T03:14:13;3.30;;;2.65;;
33268;SDS011;19640;50.944;5.260;2023-08-31T03:16:38;4.43;;;3.05;;
33268;SDS011;19640;50.944;5.260;2023-08-31T03:19:04;2.90;;;2.70;;
33268;SDS011;19640;50.944;5.260;2023-08-31T03:21:30;4.50;;;3.55;;
33268;SDS011;19640;50.944;5.260;2023-08-31T03:23:56;2.53;;;2.33;;
33268;SDS011;19640;50.944;5.260;2023-08-31T03:26:21;6.28;;;3.28;;
33268;SDS011;19640;50.944;5.260;2023-08-31T03:28:47;3.88;;;3.47;;
33268;SDS011;19640;50.944;5.260;2023-08-31T03:31:13;3.50;;;3.20;;
33268;SDS011;19640;50.944;5.260;2023-08-31T03:33:38;4.80;;;3.47;;
33268;SDS011;19640;50.944;5.260;2023-08-31T03:36:04;5.22;;;3.50;;
33268;SDS011;19640;50.944;5.260;2023-08-31T03:38:33;4.40;;;3.45;;
33268;SDS011;19640;50.944;5.260;2023-08-31T03:41:03;7.60;;;3.20;;
33268;SDS011;19640;50.944;5.260;2023-08-31T03:43:29;4.20;;;3.65;;
33268;SDS011;19640;50.944;5.260;2023-08-31T03:45:55;7.05;;;3.40;;
33268;SDS011;19640;50.944;5.260;2023-08-31T03:48:22;3.65;;;3.35;;
33268;SDS011;19640;50.944;5.260;2023-08-31T03:50:49;3.60;;;3.30;;
33268;SDS011;19640;50.944;5.260;2023-08-31T03:53:18;4.00;;;3.03;;
33268;SDS011;19640;50.944;5.260;2023-08-31T03:55:44;7.40;;;3.55;;
33268;SDS011;19640;50.944;5.260;2023-08-31T03:58:10;4.50;;;2.83;;
33268;SDS011;19640;50.944;5.260;2023-08-31T04:00:38;4.20;;;3.38;;
33268;SDS011;19640;50.944;5.260;2023-08-31T04:03:04;5.07;;;3.30;;
33268;SDS011;19640;50.944;5.260;2023-08-31T04:05:34;6.40;;;3.53;;
33268;SDS011;19640;50.944;5.260;2023-08-31T04:08:00;8.23;;;3.40;;
33268;SDS011;19640;50.944;5.260;2023-08-31T04:10:27;4.68;;;3.75;;
33268;SDS011;19640;50.944;5.260;2023-08-31T04:12:54;8.18;;;3.50;;
33268;SDS011;19640;50.944;5.260;2023-08-31T04:15:20;6.55;;;4.38;;
33268;SDS011;19640;50.944;5.260;2023-08-31T04:17:46;3.67;;;3.22;;
33268;SDS011;19640;50.944;5.260;2023-08-31T04:20:12;6.40;;;3.83;;
33268;SDS011;19640;50.944;5.260;2023-08-31T04:22:38;6.53;;;4.03;;
33268;SDS011;19640;50.944;5.260;2023-08-31T04:25:04;7.90;;;4.00;;
33268;SDS011;19640;50.944;5.260;2023-08-31T04:27:29;8.15;;;4.10;;
33268;SDS011;19640;50.944;5.260;2023-08-31T04:29:56;5.40;;;3.92;;
33268;SDS011;19640;50.944;5.260;2023-08-31T04:32:24;4.35;;;3.80;;
33268;SDS011;19640;50.944;5.260;2023-08-31T04:34:50;6.50;;;4.28;;
33268;SDS011;19640;50.944;5.260;2023-08-31T04:37:16;4.68;;;3.75;;
33268;SDS011;19640;50.944;5.260;2023-08-31T04:39:42;4.30;;;3.83;;
33268;SDS011;19640;50.944;5.260;2023-08-31T04:42:08;4.60;;;3.95;;
33268;SDS011;19640;50.944;5.260;2023-08-31T04:44:34;4.38;;;3.70;;
33268;SDS011;19640;50.944;5.260;2023-08-31T04:47:00;5.65;;;4.07;;
33268;SDS011;19640;50.944;5.260;2023-08-31T04:49:26;6.68;;;4.88;;
33268;SDS011;19640;50.944;5.260;2023-08-31T04:51:52;5.53;;;3.88;;
33268;SDS011;19640;50.944;5.260;2023-08-31T04:54:18;5.20;;;3.88;;
33268;SDS011;19640;50.944;5.260;2023-08-31T04:56:43;6.78;;;4.00;;
33268;SDS011;19640;50.944;5.260;2023-08-31T04:59:09;9.90;;;4.05;;
33268;SDS011;19640;50.944;5.260;2023-08-31T05:01:35;5.30;;;3.83;;
33268;SDS011;19640;50.944;5.260;2023-08-31T05:04:01;7.13;;;4.40;;
33268;SDS011;19640;50.944;5.260;2023-08-31T05:06:28;7.47;;;3.70;;
33268;SDS011;19640;50.944;5.260;2023-08-31T05:08:53;6.80;;;3.50;;
33268;SDS011;19640;50.944;5.260;2023-08-31T05:11:19;4.10;;;3.40;;
33268;SDS011;19640;50.944;5.260;2023-08-31T05:13:46;10.70;;;3.47;;
33268;SDS011;19640;50.944;5.260;2023-08-31T05:16:12;4.43;;;3.65;;
33268;SDS011;19640;50.944;5.260;2023-08-31T05:18:38;13.82;;;3.78;;
33268;SDS011;19640;50.944;5.260;2023-08-31T05:21:05;5.78;;;3.33;;
33268;SDS011;19640;50.944;5.260;2023-08-31T05:23:31;5.75;;;3.22;;
33268;SDS011;19640;50.944;5.260;2023-08-31T05:25:57;4.55;;;3.55;;
33268;SDS011;19640;50.944;5.260;2023-08-31T05:28:23;4.88;;;3.15;;
33268;SDS011;19640;50.944;5.260;2023-08-31T05:30:49;4.55;;;3.00;;
33268;SDS011;19640;50.944;5.260;2023-08-31T05:33:16;4.68;;;3.67;;
33268;SDS011;19640;50.944;5.260;2023-08-31T05:35:43;6.13;;;3.38;;
33268;SDS011;19640;50.944;5.260;2023-08-31T05:38:08;6.15;;;3.45;;
33268;SDS011;19640;50.944;5.260;2023-08-31T05:40:34;3.85;;;3.22;;
33268;SDS011;19640;50.944;5.260;2023-08-31T05:43:01;6.10;;;3.45;;
33268;SDS011;19640;50.944;5.260;2023-08-31T05:45:33;6.32;;;2.85;;
33268;SDS011;19640;50.944;5.260;2023-08-31T05:47:59;10.90;;;3.63;;
33268;SDS011;19640;50.944;5.260;2023-08-31T05:50:26;6.28;;;3.42;;
33268;SDS011;19640;50.944;5.260;2023-08-31T05:52:52;4.22;;;3.30;;
33268;SDS011;19640;50.944;5.260;2023-08-31T05:55:18;5.60;;;3.70;;
33268;SDS011;19640;50.944;5.260;2023-08-31T05:57:44;5.60;;;3.17;;
33268;SDS011;19640;50.944;5.260;2023-08-31T06:00:10;3.83;;;2.90;;
33268;SDS011;19640;50.944;5.260;2023-08-31T06:02:36;7.88;;;3.22;;
33268;SDS011;19640;50.944;5.260;2023-08-31T06:05:02;5.45;;;2.95;;
33268;SDS011;19640;50.944;5.260;2023-08-31T06:07:29;4.90;;;3.17;;
33268;SDS011;19640;50.944;5.260;2023-08-31T06:09:56;5.93;;;3.15;;
33268;SDS011;19640;50.944;5.260;2023-08-31T06:12:22;9.45;;;3.25;;
33268;SDS011;19640;50.944;5.260;2023-08-31T06:14:48;4.30;;;3.38;;
33268;SDS011;19640;50.944;5.260;2023-08-31T06:17:13;3.80;;;2.67;;
33268;SDS011;19640;50.944;5.260;2023-08-31T06:19:40;3.53;;;2.75;;
33268;SDS011;19640;50.944;5.260;2023-08-31T06:22:06;3.35;;;2.63;;
33268;SDS011;19640;50.944;5.260;2023-08-31T06:24:32;4.68;;;2.53;;
33268;SDS011;19640;50.944;5.260;2023-08-31T06:26:59;5.35;;;2.70;;
33268;SDS011;19640;50.944;5.260;2023-08-31T06:29:25;7.82;;;2.70;;
33268;SDS011;19640;50.944;5.260;2023-08-31T06:31:51;6.72;;;3.08;;
33268;SDS011;19640;50.944;5.260;2023-08-31T06:34:16;5.18;;;3.08;;
33268;SDS011;19640;50.944;5.260;2023-08-31T06:36:42;4.40;;;2.60;;
33268;SDS011;19640;50.944;5.260;2023-08-31T06:39:08;5.45;;;2.63;;
33268;SDS011;19640;50.944;5.260;2023-08-31T06:41:33;5.22;;;2.65;;
33268;SDS011;19640;50.944;5.260;2023-08-31T06:43:59;3.08;;;2.45;;
33268;SDS011;19640;50.944;5.260;2023-08-31T06:46:25;4.57;;;3.13;;
33268;SDS011;19640;50.944;5.260;2023-08-31T06:48:51;5.05;;;3.08;;
33268;SDS011;19640;50.944;5.260;2023-08-31T06:51:17;5.72;;;2.90;;
33268;SDS011;19640;50.944;5.260;2023-08-31T06:53:43;4.63;;;2.45;;
33268;SDS011;19640;50.944;5.260;2023-08-31T06:56:09;4.07;;;3.00;;
33268;SDS011;19640;50.944;5.260;2023-08-31T06:58:35;5.80;;;2.90;;
33268;SDS011;19640;50.944;5.260;2023-08-31T07:01:00;4.53;;;2.80;;
33268;SDS011;19640;50.944;5.260;2023-08-31T07:03:30;4.97;;;2.75;;
33268;SDS011;19640;50.944;5.260;2023-08-31T07:05:56;4.20;;;2.65;;
33268;SDS011;19640;50.944;5.260;2023-08-31T07:08:22;6.63;;;2.78;;
33268;SDS011;19640;50.944;5.260;2023-08-31T07:10:49;6.18;;;3.15;;
33268;SDS011;19640;50.944;5.260;2023-08-31T07:13:15;4.32;;;2.70;;
33268;SDS011;19640;50.944;5.260;2023-08-31T07:15:41;6.07;;;2.70;;
33268;SDS011;19640;50.944;5.260;2023-08-31T07:18:07;5.40;;;2.85;;
33268;SDS011;19640;50.944;5.260;2023-08-31T07:20:33;6.53;;;3.05;;
33268;SDS011;19640;50.944;5.260;2023-08-31T07:22:59;5.50;;;3.88;;
33268;SDS011;19640;50.944;5.260;2023-08-31T07:25:24;8.38;;;3.03;;
33268;SDS011;19640;50.944;5.260;2023-08-31T07:27:50;8.73;;;3.33;;
33268;SDS011;19640;50.944;5.260;2023-08-31T07:30:17;8.40;;;2.70;;
33268;SDS011;19640;50.944;5.260;2023-08-31T07:32:43;5.60;;;2.45;;
33268;SDS011;19640;50.944;5.260;2023-08-31T07:35:09;3.60;;;2.00;;
33268;SDS011;19640;50.944;5.260;2023-08-31T07:37:35;6.78;;;2.67;;
33268;SDS011;19640;50.944;5.260;2023-08-31T07:40:02;5.50;;;2.03;;
33268;SDS011;19640;50.944;5.260;2023-08-31T07:42:31;4.22;;;2.25;;
33268;SDS011;19640;50.944;5.260;2023-08-31T07:44:57;4.65;;;1.80;;
33268;SDS011;19640;50.944;5.260;2023-08-31T07:47:22;2.85;;;1.70;;
33268;SDS011;19640;50.944;5.260;2023-08-31T07:49:48;6.55;;;2.30;;
33268;SDS011;19640;50.944;5.260;2023-08-31T07:52:14;5.15;;;1.73;;
33268;SDS011;19640;50.944;5.260;2023-08-31T07:54:39;5.15;;;1.77;;
33268;SDS011;19640;50.944;5.260;2023-08-31T07:57:05;6.05;;;2.08;;
33268;SDS011;19640;50.944;5.260;2023-08-31T07:59:30;3.97;;;1.83;;
33268;SDS011;19640;50.944;5.260;2023-08-31T08:01:56;6.43;;;2.25;;
33268;SDS011;19640;50.944;5.260;2023-08-31T08:04:22;9.00;;;2.58;;
33268;SDS011;19640;50.944;5.260;2023-08-31T08:06:49;3.97;;;2.20;;
33268;SDS011;19640;50.944;5.260;2023-08-31T08:09:15;6.15;;;2.03;;
33268;SDS011;19640;50.944;5.260;2023-08-31T08:11:42;5.38;;;2.17;;
33268;SDS011;19640;50.944;5.260;2023-08-31T08:14:08;8.43;;;2.72;;
33268;SDS011;19640;50.944;5.260;2023-08-31T08:16:34;4.68;;;2.55;;
33268;SDS011;19640;50.944;5.260;2023-08-31T08:19:00;6.00;;;2.00;;
33268;SDS011;19640;50.944;5.260;2023-08-31T08:21:26;5.40;;;2.15;;
33268;SDS011;19640;50.944;5.260;2023-08-31T08:23:52;4.13;;;1.95;;
33268;SDS011;19640;50.944;5.260;2023-08-31T08:26:18;9.40;;;2.50;;
33268;SDS011;19640;50.944;5.260;2023-08-31T08:28:43;6.97;;;2.35;;
33268;SDS011;19640;50.944;5.260;2023-08-31T08:31:10;5.32;;;2.10;;
33268;SDS011;19640;50.944;5.260;2023-08-31T08:33:36;6.28;;;2.33;;
33268;SDS011;19640;50.944;5.260;2023-08-31T08:36:02;8.20;;;2.40;;
33268;SDS011;19640;50.944;5.260;2023-08-31T08:38:28;7.70;;;2.65;;
33268;SDS011;19640;50.944;5.260;2023-08-31T08:40:53;6.22;;;2.67;;
33268;SDS011;19640;50.944;5.260;2023-08-31T08:43:21;4.20;;;2.30;;
33268;SDS011;19640;50.944;5.260;2023-08-31T08:45:50;6.30;;;2.38;;
33268;SDS011;19640;50.944;5.260;2023-08-31T08:48:16;5.63;;;2.58;;
33268;SDS011;19640;50.944;5.260;2023-08-31T08:50:43;7.45;;;2.55;;
33268;SDS011;19640;50.944;5.260;2023-08-31T08:53:10;11.35;;;2.72;;
33268;SDS011;19640;50.944;5.260;2023-08-31T08:55:36;5.72;;;2.47;;
33268;SDS011;19640;50.944;5.260;2023-08-31T08:58:02;4.43;;;2.33;;
33268;SDS011;19640;50.944;5.260;2023-08-31T09:00:29;5.00;;;2.53;;
33268;SDS011;19640;50.944;5.260;2023-08-31T09:02:55;6.07;;;3.42;;
33268;SDS011;19640;50.944;5.260;2023-08-31T09:05:21;11.50;;;3.28;;
33268;SDS011;19640;50.944;5.260;2023-08-31T09:08:00;5.53;;;2.63;;
33268;SDS011;19640;50.944;5.260;2023-08-31T09:10:47;5.65;;;2.53;;
33268;SDS011;19640;50.944;5.260;2023-08-31T09:13:13;4.75;;;2.20;;
33268;SDS011;19640;50.944;5.260;2023-08-31T09:15:43;6.90;;;2.38;;
33268;SDS011;19640;50.944;5.260;2023-08-31T09:18:27;5.50;;;2.40;;
33268;SDS011;19640;50.944;5.260;2023-08-31T09:21:00;6.55;;;2.72;;
33268;SDS011;19640;50.944;5.260;2023-08-31T09:23:26;4.07;;;2.15;;
33268;SDS011;19640;50.944;5.260;2023-08-31T09:25:53;3.70;;;2.35;;
33268;SDS011;19640;50.944;5.260;2023-08-31T09:28:20;5.65;;;2.40;;
33268;SDS011;19640;50.944;5.260;2023-08-31T09:30:48;7.38;;;2.35;;
33268;SDS011;19640;50.944;5.260;2023-08-31T09:33:15;8.57;;;2.20;;
33268;SDS011;19640;50.944;5.260;2023-08-31T09:35:49;9.27;;;2.80;;
33268;SDS011;19640;50.944;5.260;2023-08-31T09:38:17;5.97;;;2.47;;
33268;SDS011;19640;50.944;5.260;2023-08-31T09:40:43;4.50;;;2.35;;
33268;SDS011;19640;50.944;5.260;2023-08-31T09:43:09;3.00;;;1.70;;
33268;SDS011;19640;50.944;5.260;2023-08-31T09:45:35;7.03;;;2.50;;
33268;SDS011;19640;50.944;5.260;2023-08-31T09:48:03;3.90;;;2.10;;
33268;SDS011;19640;50.944;5.260;2023-08-31T09:50:30;8.98;;;2.38;;
33268;SDS011;19640;50.944;5.260;2023-08-31T09:53:00;4.78;;;2.20;;
33268;SDS011;19640;50.944;5.260;2023-08-31T09:55:28;5.70;;;2.05;;
33268;SDS011;19640;50.944;5.260;2023-08-31T09:57:56;6.70;;;2.33;;
33268;SDS011;19640;50.944;5.260;2023-08-31T10:00:25;5.70;;;1.90;;
33268;SDS011;19640;50.944;5.260;2023-08-31T10:02:54;5.20;;;1.92;;
33268;SDS011;19640;50.944;5.260;2023-08-31T10:05:22;4.45;;;2.20;;
33268;SDS011;19640;50.944;5.260;2023-08-31T10:07:49;3.92;;;2.33;;
33268;SDS011;19640;50.944;5.260;2023-08-31T10:10:15;10.60;;;2.53;;
33268;SDS011;19640;50.944;5.260;2023-08-31T10:12:41;4.25;;;1.83;;
33268;SDS011;19640;50.944;5.260;2023-08-31T10:15:10;7.25;;;2.30;;
33268;SDS011;19640;50.944;5.260;2023-08-31T10:17:37;3.60;;;1.75;;
33268;SDS011;19640;50.944;5.260;2023-08-31T10:20:08;4.95;;;1.60;;
33268;SDS011;19640;50.944;5.260;2023-08-31T10:23:03;4.88;;;1.80;;
33268;SDS011;19640;50.944;5.260;2023-08-31T10:26:03;4.40;;;1.80;;
33268;SDS011;19640;50.944;5.260;2023-08-31T10:28:22;5.93;;;2.50;;
33268;SDS011;19640;50.944;5.260;2023-08-31T10:31:01;4.22;;;1.70;;
33268;SDS011;19640;50.944;5.260;2023-08-31T10:33:34;3.60;;;2.00;;
33268;SDS011;19640;50.944;5.260;2023-08-31T10:36:15;3.63;;;1.40;;
33268;SDS011;19640;50.944;5.260;2023-08-31T10:41:22;5.35;;;1.40;;
33268;SDS011;19640;50.944;5.260;2023-08-31T10:43:50;3.70;;;1.63;;
33268;SDS011;19640;50.944;5.260;2023-08-31T10:46:18;2.15;;;1.25;;
33268;SDS011;19640;50.944;5.260;2023-08-31T10:51:36;3.22;;;1.10;;
33268;SDS011;19640;50.944;5.260;2023-08-31T10:56:52;3.55;;;1.00;;
33268;SDS011;19640;50.944;5.260;2023-08-31T11:02:28;3.03;;;1.27;;
33268;SDS011;19640;50.944;5.260;2023-08-31T11:07:42;1.17;;;0.90;;
33268;SDS011;19640;50.944;5.260;2023-08-31T11:10:21;5.00;;;1.40;;
33268;SDS011;19640;50.944;5.260;2023-08-31T11:12:49;3.50;;;1.25;;
33268;SDS011;19640;50.944;5.260;2023-08-31T11:15:19;3.45;;;1.10;;
33268;SDS011;19640;50.944;5.260;2023-08-31T11:17:46;3.45;;;1.20;;
33268;SDS011;19640;50.944;5.260;2023-08-31T11:20:15;1.92;;;0.95;;
33268;SDS011;19640;50.944;5.260;2023-08-31T11:22:42;3.65;;;1.17;;
33268;SDS011;19640;50.944;5.260;2023-08-31T11:25:12;2.55;;;1.00;;
33268;SDS011;19640;50.944;5.260;2023-08-31T11:27:38;2.28;;;1.20;;
33268;SDS011;19640;50.944;5.260;2023-08-31T11:30:25;2.10;;;0.85;;
33268;SDS011;19640;50.944;5.260;2023-08-31T11:32:51;3.83;;;1.00;;
33268;SDS011;19640;50.944;5.260;2023-08-31T11:35:21;3.58;;;1.08;;
33268;SDS011;19640;50.944;5.260;2023-08-31T11:37:52;3.65;;;1.00;;
33268;SDS011;19640;50.944;5.260;2023-08-31T11:40:21;3.33;;;1.02;;
33268;SDS011;19640;50.944;5.260;2023-08-31T11:42:48;5.88;;;1.33;;
33268;SDS011;19640;50.944;5.260;2023-08-31T11:45:15;3.05;;;1.25;;
33268;SDS011;19640;50.944;5.260;2023-08-31T11:47:41;1.92;;;1.20;;
33268;SDS011;19640;50.944;5.260;2023-08-31T11:50:09;2.67;;;1.13;;
33268;SDS011;19640;50.944;5.260;2023-08-31T11:52:37;3.20;;;1.20;;
33268;SDS011;19640;50.944;5.260;2023-08-31T11:55:09;5.68;;;1.40;;
33268;SDS011;19640;50.944;5.260;2023-08-31T11:57:36;3.40;;;1.58;;
33268;SDS011;19640;50.944;5.260;2023-08-31T12:00:02;3.50;;;1.08;;
33268;SDS011;19640;50.944;5.260;2023-08-31T12:02:34;3.90;;;1.25;;
33268;SDS011;19640;50.944;5.260;2023-08-31T12:05:00;6.07;;;1.13;;
33268;SDS011;19640;50.944;5.260;2023-08-31T12:07:26;2.55;;;1.02;;
33268;SDS011;19640;50.944;5.260;2023-08-31T12:09:51;4.28;;;1.17;;
33268;SDS011;19640;50.944;5.260;2023-08-31T12:12:20;3.25;;;1.27;;
33268;SDS011;19640;50.944;5.260;2023-08-31T12:14:46;4.30;;;1.25;;
33268;SDS011;19640;50.944;5.260;2023-08-31T12:17:12;3.03;;;0.98;;
33268;SDS011;19640;50.944;5.260;2023-08-31T12:19:38;3.58;;;1.52;;
33268;SDS011;19640;50.944;5.260;2023-08-31T12:22:04;5.30;;;1.20;;
33268;SDS011;19640;50.944;5.260;2023-08-31T12:24:39;5.28;;;1.25;;
33268;SDS011;19640;50.944;5.260;2023-08-31T12:27:05;4.28;;;1.55;;
33268;SDS011;19640;50.944;5.260;2023-08-31T12:29:32;2.25;;;1.10;;
33268;SDS011;19640;50.944;5.260;2023-08-31T12:31:58;5.50;;;1.20;;
33268;SDS011;19640;50.944;5.260;2023-08-31T12:34:24;2.30;;;0.93;;
33268;SDS011;19640;50.944;5.260;2023-08-31T12:36:49;4.50;;;1.17;;
33268;SDS011;19640;50.944;5.260;2023-08-31T12:39:15;3.58;;;1.10;;
33268;SDS011;19640;50.944;5.260;2023-08-31T12:41:41;4.47;;;1.17;;
33268;SDS011;19640;50.944;5.260;2023-08-31T12:44:07;2.58;;;1.40;;
33268;SDS011;19640;50.944;5.260;2023-08-31T12:46:33;3.13;;;1.10;;
33268;SDS011;19640;50.944;5.260;2023-08-31T12:48:59;2.60;;;1.40;;
33268;SDS011;19640;50.944;5.260;2023-08-31T12:51:26;2.97;;;1.13;;
33268;SDS011;19640;50.944;5.260;2023-08-31T12:53:52;4.03;;;1.20;;
33268;SDS011;19640;50.944;5.260;2023-08-31T12:56:18;3.90;;;1.23;;
33268;SDS011;19640;50.944;5.260;2023-08-31T12:58:50;4.65;;;1.80;;
33268;SDS011;19640;50.944;5.260;2023-08-31T13:01:17;4.30;;;1.30;;
33268;SDS011;19640;50.944;5.260;2023-08-31T13:03:44;6.13;;;1.40;;
33268;SDS011;19640;50.944;5.260;2023-08-31T13:06:12;4.85;;;1.15;;
33268;SDS011;19640;50.944;5.260;2023-08-31T13:08:44;2.08;;;1.30;;
33268;SDS011;19640;50.944;5.260;2023-08-31T13:11:10;3.83;;;1.10;;
33268;SDS011;19640;50.944;5.260;2023-08-31T13:13:37;2.50;;;1.27;;
33268;SDS011;19640;50.944;5.260;2023-08-31T13:16:03;3.00;;;0.93;;
33268;SDS011;19640;50.944;5.260;2023-08-31T13:18:29;3.00;;;1.33;;
33268;SDS011;19640;50.944;5.260;2023-08-31T13:20:55;3.03;;;1.10;;
33268;SDS011;19640;50.944;5.260;2023-08-31T13:23:23;3.42;;;1.02;;
33268;SDS011;19640;50.944;5.260;2023-08-31T13:25:50;2.63;;;1.00;;
33268;SDS011;19640;50.944;5.260;2023-08-31T13:28:16;3.92;;;0.98;;
33268;SDS011;19640;50.944;5.260;2023-08-31T13:30:42;5.32;;;2.42;;
33268;SDS011;19640;50.944;5.260;2023-08-31T13:33:08;3.20;;;1.20;;
33268;SDS011;19640;50.944;5.260;2023-08-31T13:35:34;2.35;;;1.20;;
33268;SDS011;19640;50.944;5.260;2023-08-31T13:38:00;3.15;;;1.05;;
33268;SDS011;19640;50.944;5.260;2023-08-31T13:40:27;3.83;;;1.00;;
33268;SDS011;19640;50.944;5.260;2023-08-31T13:42:57;3.25;;;1.17;;
33268;SDS011;19640;50.944;5.260;2023-08-31T13:45:28;3.58;;;1.00;;
33268;SDS011;19640;50.944;5.260;2023-08-31T13:48:00;3.85;;;1.10;;
33268;SDS011;19640;50.944;5.260;2023-08-31T13:50:28;10.40;;;1.30;;
33268;SDS011;19640;50.944;5.260;2023-08-31T13:52:54;2.72;;;0.77;;
33268;SDS011;19640;50.944;5.260;2023-08-31T13:55:20;3.63;;;1.00;;
33268;SDS011;19640;50.944;5.260;2023-08-31T13:57:47;1.40;;;0.70;;
33268;SDS011;19640;50.944;5.260;2023-08-31T14:00:13;4.90;;;1.02;;
33268;SDS011;19640;50.944;5.260;2023-08-31T14:02:39;2.78;;;1.10;;
33268;SDS011;19640;50.944;5.260;2023-08-31T14:05:05;4.13;;;1.17;;
33268;SDS011;19640;50.944;5.260;2023-08-31T14:07:32;3.72;;;0.77;;
33268;SDS011;19640;50.944;5.260;2023-08-31T14:09:58;4.82;;;1.17;;
33268;SDS011;19640;50.944;5.260;2023-08-31T14:12:23;2.28;;;0.80;;
33268;SDS011;19640;50.944;5.260;2023-08-31T14:14:50;1.73;;;0.70;;
33268;SDS011;19640;50.944;5.260;2023-08-31T14:17:16;2.70;;;0.98;;
33268;SDS011;19640;50.944;5.260;2023-08-31T14:19:42;6.13;;;1.00;;
33268;SDS011;19640;50.944;5.260;2023-08-31T14:22:08;3.20;;;1.23;;
33268;SDS011;19640;50.944;5.260;2023-08-31T14:24:35;2.95;;;1.08;;
33268;SDS011;19640;50.944;5.260;2023-08-31T14:27:02;3.22;;;1.00;;
33268;SDS011;19640;50.944;5.260;2023-08-31T14:29:28;4.03;;;0.90;;
33268;SDS011;19640;50.944;5.260;2023-08-31T14:31:54;2.25;;;0.90;;
33268;SDS011;19640;50.944;5.260;2023-08-31T14:34:21;2.38;;;0.80;;
33268;SDS011;19640;50.944;5.260;2023-08-31T14:36:47;1.95;;;0.77;;
33268;SDS011;19640;50.944;5.260;2023-08-31T14:39:13;1.98;;;0.90;;
33268;SDS011;19640;50.944;5.260;2023-08-31T14:41:40;1.83;;;0.82;;
33268;SDS011;19640;50.944;5.260;2023-08-31T14:44:06;2.83;;;0.90;;
33268;SDS011;19640;50.944;5.260;2023-08-31T14:46:31;2.63;;;1.00;;
33268;SDS011;19640;50.944;5.260;2023-08-31T14:48:57;2.05;;;1.02;;
33268;SDS011;19640;50.944;5.260;2023-08-31T14:51:23;1.70;;;1.15;;
33268;SDS011;19640;50.944;5.260;2023-08-31T14:53:49;1.85;;;1.00;;
33268;SDS011;19640;50.944;5.260;2023-08-31T14:56:14;5.13;;;1.50;;
33268;SDS011;19640;50.944;5.260;2023-08-31T14:58:40;3.70;;;1.30;;
33268;SDS011;19640;50.944;5.260;2023-08-31T15:01:06;3.67;;;1.30;;
33268;SDS011;19640;50.944;5.260;2023-08-31T15:03:31;3.92;;;1.33;;
33268;SDS011;19640;50.944;5.260;2023-08-31T15:05:57;1.90;;;1.30;;
33268;SDS011;19640;50.944;5.260;2023-08-31T15:08:34;3.28;;;1.20;;
33268;SDS011;19640;50.944;5.260;2023-08-31T15:11:02;2.15;;;1.15;;
33268;SDS011;19640;50.944;5.260;2023-08-31T15:13:28;5.13;;;1.50;;